Time;durP1;ratioP1;P1;durP2;ratioP2;P2;SDS_P1;SDS_P2;PMS_P1;PMS_P2;Temp;Humidity;BMP_temperature;BMP_pressure;BME280_temperature;BME280_humidity;BME280_pressure;Samples;Min_cycle;Max_cycle;Signal;HPM_P1;HPM_P2
2021/05/26 00:00:46;;;;;;;16.30;10.10;;;;;;;7.65;82.62;100109.84;8058575;35;21257;-73
2021/05/26 00:05:50;;;;;;;16.38;10.18;;;;;;;7.56;82.75;100105.16;8058261;35;20360;-73
2021/05/26 00:10:52;;;;;;;17.98;10.85;;;;;;;7.52;83.21;100098.34;8061811;35;20286;-73
2021/05/26 00:15:55;;;;;;;18.08;10.77;;;;;;;7.36;84.16;100089.72;8073269;35;20187;-73
2021/05/26 00:21:00;;;;;;;21.02;12.90;;;;;;;7.50;83.35;100092.25;8060715;35;20584;-73
2021/05/26 00:26:08;;;;;;;23.77;13.80;;;;;;;7.60;83.15;100092.44;8058155;35;21041;-72
2021/05/26 00:31:11;;;;;;;28.20;14.43;;;;;;;7.45;83.47;100081.88;8055844;35;20226;-73
2021/05/26 00:36:15;;;;;;;26.65;15.57;;;;;;;7.76;82.68;100086.78;8054080;35;20222;-73
2021/05/26 00:41:17;;;;;;;29.58;17.40;;;;;;;7.79;83.24;100094.56;8053262;35;20221;-73
2021/05/26 00:46:20;;;;;;;37.38;19.30;;;;;;;7.65;83.38;100084.91;8049967;35;20537;-72
2021/05/26 00:51:23;;;;;;;38.08;20.42;;;;;;;7.53;83.56;100077.78;8019536;35;20617;-72
2021/05/26 00:56:27;;;;;;;38.55;18.77;;;;;;;7.58;83.31;100079.16;7995746;35;20239;-73
2021/05/26 01:01:30;;;;;;;35.38;19.88;;;;;;;7.57;83.22;100084.59;7996225;35;20188;-73
2021/05/26 01:06:34;;;;;;;30.50;17.13;;;;;;;7.36;84.11;100073.69;7977746;35;20645;-72
2021/05/26 01:11:37;;;;;;;33.30;16.05;;;;;;;7.48;83.37;100068.28;7977870;35;20503;-72
2021/05/26 01:16:40;;;;;;;30.23;17.57;;;;;;;7.83;82.52;100066.66;7999136;35;20472;-73
2021/05/26 01:21:44;;;;;;;28.30;15.02;;;;;;;7.60;83.25;100061.19;8002114;35;20152;-72
2021/05/26 01:26:48;;;;;;;28.58;16.23;;;;;;;7.75;82.65;100058.34;8000120;35;21097;-72
2021/05/26 01:31:53;;;;;;;27.20;14.45;;;;;;;7.85;82.27;100062.91;8001827;35;20638;-72
2021/05/26 01:36:58;;;;;;;26.67;13.82;;;;;;;7.71;82.36;100052.38;8003925;35;20195;-72
2021/05/26 01:42:02;;;;;;;26.50;15.20;;;;;;;7.74;82.37;100060.19;8013786;35;20457;-72
2021/05/26 01:47:04;;;;;;;25.02;14.80;;;;;;;7.70;82.31;100054.19;8011728;35;20690;-72
2021/05/26 01:52:09;;;;;;;25.45;13.57;;;;;;;7.68;82.11;100055.28;8011969;35;20221;-72
2021/05/26 01:57:13;;;;;;;23.13;14.48;;;;;;;7.65;81.64;100047.47;7981080;35;20239;-72
2021/05/26 02:02:17;;;;;;;23.95;12.60;;;;;;;7.41;81.15;100048.34;7997175;35;20344;-72
2021/05/26 02:07:19;;;;;;;24.63;13.57;;;;;;;7.59;81.12;100043.44;7997737;35;20904;-72
2021/05/26 02:12:23;;;;;;;23.05;13.48;;;;;;;7.51;81.34;100037.81;7996106;35;20460;-72
2021/05/26 02:17:31;;;;;;;18.70;10.50;;;;;;;7.35;81.79;100035.44;7973852;35;20442;-72
2021/05/26 02:22:34;;;;;;;13.43;8.10;;;;;;;7.04;81.60;100036.78;7993683;35;20669;-73
2021/05/26 02:27:39;;;;;;;14.38;8.35;;;;;;;7.07;81.54;100031.22;7994693;35;20442;-73
2021/05/26 02:32:54;;;;;;;21.67;11.35;;;;;;;7.18;82.08;100033.13;7993779;35;20397;-73
2021/05/26 02:37:57;;;;;;;24.40;12.90;;;;;;;7.26;81.91;100034.25;7992258;35;20459;-73
2021/05/26 02:43:02;;;;;;;25.00;12.93;;;;;;;7.25;82.09;100029.88;7992355;35;20533;-73
2021/05/26 02:48:07;;;;;;;21.30;11.27;;;;;;;7.26;81.87;100039.59;7993727;35;20460;-73
2021/05/26 02:53:10;;;;;;;22.00;11.52;;;;;;;7.22;82.16;100034.63;7995936;35;20480;-73
2021/05/26 02:58:14;;;;;;;19.67;10.00;;;;;;;7.26;81.92;100030.75;7998324;35;20954;-72
2021/05/26 03:03:40;;;;;;;19.15;10.73;;;;;;;7.37;81.29;100029.97;7999971;35;20362;-72
2021/05/26 03:08:49;;;;;;;19.10;8.35;;;;;;;7.28;81.04;100021.66;7995362;35;20323;-72
2021/05/26 03:13:57;;;;;;;17.10;8.77;;;;;;;7.34;81.11;100024.84;7995840;35;20952;-72
2021/05/26 03:19:01;;;;;;;14.80;8.80;;;;;;;7.52;80.74;100023.50;7973790;35;20575;-72
2021/05/26 03:24:05;;;;;;;19.20;8.43;;;;;;;7.53;80.55;100013.66;7997833;35;20459;-73
2021/05/26 03:29:13;;;;;;;17.35;8.35;;;;;;;7.31;81.25;100009.03;8002766;35;20192;-72
2021/05/26 03:34:16;;;;;;;14.93;8.35;;;;;;;7.43;80.34;100005.44;8005278;35;20434;-73
2021/05/26 03:39:19;;;;;;;17.23;8.77;;;;;;;7.49;80.12;100005.88;7986002;35;20448;-72
2021/05/26 03:44:23;;;;;;;13.95;8.75;;;;;;;7.52;80.43;100007.47;8001366;35;20465;-72
2021/05/26 03:49:27;;;;;;;18.08;8.52;;;;;;;7.47;79.93;100004.28;7991299;35;20493;-72
2021/05/26 03:54:31;;;;;;;14.23;7.00;;;;;;;7.29;80.58;100003.78;7970437;35;20456;-73
2021/05/26 03:59:36;;;;;;;14.68;7.80;;;;;;;7.42;79.93;100006.44;7970700;35;20245;-73
2021/05/26 04:04:41;;;;;;;16.47;7.73;;;;;;;7.46;79.92;100005.22;7992164;35;20450;-72
2021/05/26 04:09:45;;;;;;;19.95;8.75;;;;;;;7.38;79.94;100011.16;7969457;35;21459;-72
2021/05/26 04:14:49;;;;;;;17.63;8.55;;;;;;;7.45;79.32;100001.69;7970136;35;20649;-72
2021/05/26 04:20:24;;;;;;;13.40;7.22;;;;;;;7.37;79.84;100000.56;7993335;35;21108;-72
2021/05/26 04:25:29;;;;;;;17.35;8.70;;;;;;;7.39;79.63;100006.66;7972177;35;20566;-72
2021/05/26 04:30:34;;;;;;;15.60;8.52;;;;;;;7.40;79.67;99992.31;7995934;35;20244;-72
2021/05/26 04:35:40;;;;;;;14.38;8.05;;;;;;;7.31;79.53;99993.00;7983872;35;20183;-72
2021/05/26 04:40:43;;;;;;;17.40;9.35;;;;;;;7.41;79.65;99986.88;8004476;35;20137;-72
2021/05/26 04:45:47;;;;;;;18.10;9.85;;;;;;;7.27;79.97;99982.56;8004563;35;20450;-72
2021/05/26 04:50:51;;;;;;;17.77;9.20;;;;;;;7.28;80.25;99988.75;8000867;35;20492;-72
2021/05/26 04:55:53;;;;;;;19.25;9.95;;;;;;;7.47;79.89;99988.22;8000467;35;20682;-72
2021/05/26 05:00:57;;;;;;;17.08;9.60;;;;;;;7.41;79.70;99983.34;7997019;35;20445;-72
2021/05/26 05:06:00;;;;;;;15.48;6.30;;;;;;;7.27;79.78;99979.88;7995595;35;20533;-72
2021/05/26 05:11:02;;;;;;;21.42;9.60;;;;;;;7.54;79.54;99980.59;7994577;35;20156;-72
2021/05/26 05:16:06;;;;;;;16.58;8.63;;;;;;;7.46;79.42;99981.16;7990987;35;20435;-71
2021/05/26 05:21:09;;;;;;;22.15;10.65;;;;;;;7.48;79.71;99971.22;7989689;35;20183;-72
2021/05/26 05:26:11;;;;;;;16.45;9.75;;;;;;;7.30;80.12;99975.28;7994007;35;21577;-72
2021/05/26 05:31:15;;;;;;;19.73;10.65;;;;;;;7.51;79.75;99979.00;7995881;35;20449;-72
2021/05/26 05:36:17;;;;;;;19.00;9.77;;;;;;;7.77;79.32;99985.09;7992791;35;20152;-72
2021/05/26 05:41:20;;;;;;;26.95;11.02;;;;;;;7.50;80.10;99971.97;7992887;35;20541;-72
2021/05/26 05:46:23;;;;;;;18.67;10.25;;;;;;;7.50;79.66;99974.63;7973517;35;21267;-72
2021/05/26 05:51:26;;;;;;;28.70;12.37;;;;;;;7.68;79.63;99967.06;7997157;35;20474;-72
2021/05/26 05:56:29;;;;;;;26.42;12.85;;;;;;;7.92;79.32;99967.00;7998355;35;20502;-72
2021/05/26 06:01:32;;;;;;;27.25;10.57;;;;;;;7.50;80.04;99964.78;7996954;35;20242;-72
2021/05/26 06:06:35;;;;;;;28.77;13.88;;;;;;;7.71;80.51;99962.34;8007782;35;20484;-72
2021/05/26 06:11:38;;;;;;;23.73;12.73;;;;;;;7.78;80.55;99967.22;8013181;35;20922;-72
2021/05/26 06:16:41;;;;;;;26.47;12.73;;;;;;;8.05;80.91;99949.03;7975347;35;20467;-72
2021/05/26 06:21:44;;;;;;;25.98;12.32;;;;;;;8.28;81.28;99951.75;7914881;35;20444;-72
2021/05/26 06:26:47;;;;;;;29.08;13.20;;;;;;;8.33;79.80;99952.25;7909712;35;20585;-72
2021/05/26 06:31:51;;;;;;;30.30;13.88;;;;;;;8.29;80.08;99970.38;7949329;35;20439;-72
2021/05/26 06:36:53;;;;;;;29.30;12.30;;;;;;;8.44;78.74;99946.03;7958637;35;20964;-71
2021/05/26 06:41:57;;;;;;;30.63;12.98;;;;;;;8.64;78.87;99937.34;7960464;35;20411;-71
2021/05/26 06:47:00;;;;;;;19.58;11.35;;;;;;;8.51;78.60;99953.50;7976129;35;20533;-71
2021/05/26 06:52:04;;;;;;;24.38;10.05;;;;;;;8.43;77.61;99958.59;7935834;35;20470;-71
2021/05/26 06:57:07;;;;;;;23.77;11.20;;;;;;;8.46;78.28;99953.03;7933215;35;20465;-71
2021/05/26 07:02:11;;;;;;;18.95;11.32;;;;;;;8.76;77.97;99940.84;7934979;35;20454;-71
2021/05/26 07:07:14;;;;;;;26.60;12.02;;;;;;;9.20;78.30;99947.09;7934155;35;21123;-71
2021/05/26 07:12:16;;;;;;;20.50;11.00;;;;;;;9.26;76.20;99938.53;7933936;35;20205;-72
2021/05/26 07:17:20;;;;;;;19.80;10.73;;;;;;;9.89;75.57;99931.44;8004555;35;20487;-72
2021/05/26 07:22:23;;;;;;;19.23;9.88;;;;;;;9.48;72.59;99932.25;7972811;36;20199;-72
2021/05/26 07:27:26;;;;;;;18.42;11.48;;;;;;;9.03;74.84;99922.53;7989252;35;20451;-72
2021/05/26 07:32:29;;;;;;;20.08;9.65;;;;;;;9.57;73.87;99923.44;8073162;35;20190;-72
2021/05/26 07:37:32;;;;;;;15.75;9.25;;;;;;;10.16;73.63;99927.38;8061572;35;20492;-72
2021/05/26 07:42:35;;;;;;;18.67;8.82;;;;;;;9.98;70.89;99932.50;8014857;35;20454;-72
2021/05/26 07:47:39;;;;;;;15.02;7.75;;;;;;;9.62;70.60;99945.34;8024343;35;20160;-72
2021/05/26 07:52:42;;;;;;;15.60;6.80;;;;;;;10.12;70.54;99920.56;8025616;35;20990;-72
2021/05/26 07:57:47;;;;;;;14.43;8.65;;;;;;;10.65;70.30;99933.00;8027005;35;20674;-72
2021/05/26 08:02:53;;;;;;;10.75;8.02;;;;;;;11.26;67.76;99939.09;8010615;35;20132;-72
2021/05/26 08:07:55;;;;;;;11.95;7.88;;;;;;;10.73;68.62;99934.00;8042473;35;20640;-72
2021/05/26 08:12:58;;;;;;;9.93;6.55;;;;;;;10.35;68.22;99923.94;7982217;36;20489;-72
2021/05/26 08:18:01;;;;;;;12.50;7.18;;;;;;;10.30;68.77;99927.03;8008277;35;20650;-72
2021/05/26 08:23:04;;;;;;;10.82;6.07;;;;;;;10.57;66.61;99917.53;8081353;35;20482;-72
2021/05/26 08:28:06;;;;;;;10.20;5.47;;;;;;;10.03;66.47;99906.13;8075347;35;20144;-73
2021/05/26 08:33:10;;;;;;;8.77;6.32;;;;;;;10.57;65.47;99909.50;8062092;35;20475;-73
2021/05/26 08:38:12;;;;;;;8.18;5.43;;;;;;;11.13;64.82;99905.41;8073158;35;21849;-73
2021/05/26 08:43:16;;;;;;;9.52;5.72;;;;;;;10.76;66.62;99895.28;8073055;35;20457;-72
2021/05/26 08:48:23;;;;;;;9.32;5.15;;;;;;;10.80;64.42;99910.13;8083924;35;20450;-75
2021/05/26 08:53:26;;;;;;;10.32;6.90;;;;;;;11.10;63.22;99884.16;8065882;35;21481;-74
2021/05/26 08:58:28;;;;;;;6.97;5.80;;;;;;;11.28;61.02;99895.94;8048941;35;20713;-73
2021/05/26 09:03:32;;;;;;;7.55;5.95;;;;;;;11.30;61.62;99896.66;8040412;35;20451;-72
2021/05/26 09:08:47;;;;;;;4.63;3.90;;;;;;;11.18;61.46;99892.41;8044654;35;20128;-73
2021/05/26 09:13:50;;;;;;;9.25;5.05;;;;;;;11.54;59.89;99866.63;8047343;35;20219;-73
2021/05/26 09:18:58;;;;;;;5.45;4.03;;;;;;;12.05;59.76;99870.78;8041775;35;20469;-73
2021/05/26 09:24:01;;;;;;;6.15;4.03;;;;;;;12.89;56.63;99866.28;8011969;35;20621;-73
2021/05/26 09:29:06;;;;;;;3.78;3.40;;;;;;;12.22;56.57;99855.69;8008549;35;20436;-73
2021/05/26 09:34:10;;;;;;;4.28;3.33;;;;;;;12.05;56.07;99854.63;8016581;35;21069;-72
2021/05/26 09:39:12;;;;;;;3.90;3.47;;;;;;;11.98;58.06;99856.19;8020580;35;21583;-72
2021/05/26 09:44:17;;;;;;;4.45;3.40;;;;;;;12.73;55.70;99840.03;8021278;35;21173;-72
2021/05/26 09:49:23;;;;;;;3.92;3.60;;;;;;;13.34;55.83;99860.84;8017250;35;20263;-72
2021/05/26 09:54:27;;;;;;;6.65;3.55;;;;;;;13.44;53.29;99848.16;8008114;35;20239;-72
2021/05/26 09:59:32;;;;;;;4.30;3.60;;;;;;;13.68;52.37;99846.66;8013441;35;20571;-72
2021/05/26 10:04:41;;;;;;;3.33;2.88;;;;;;;13.09;51.56;99842.75;8003146;35;20452;-72
2021/05/26 10:10:03;;;;;;;4.30;3.53;;;;;;;13.07;53.65;99839.38;8003210;35;20446;-72
2021/05/26 10:15:13;;;;;;;3.35;2.55;;;;;;;14.01;49.80;99839.59;8002672;35;20580;-72
2021/05/26 10:20:19;;;;;;;3.95;2.88;;;;;;;14.30;47.91;99836.56;8004065;35;20525;-72
2021/05/26 10:25:23;;;;;;;2.70;2.50;;;;;;;14.11;47.96;99839.50;8002657;35;20151;-72
2021/05/26 10:30:27;;;;;;;3.50;2.53;;;;;;;13.27;51.29;99828.28;8003993;35;20191;-72
2021/05/26 10:35:55;;;;;;;4.70;2.88;;;;;;;13.09;52.14;99826.59;7981480;35;20199;-72
2021/05/26 10:40:58;;;;;;;3.97;2.90;;;;;;;13.61;50.37;99848.28;8016280;35;20157;-72
2021/05/26 10:46:03;;;;;;;2.85;2.63;;;;;;;13.09;51.31;99835.50;8018818;35;20207;-72
2021/05/26 10:51:09;;;;;;;2.90;2.70;;;;;;;13.60;49.79;99836.66;8023003;35;20226;-72
2021/05/26 10:56:36;;;;;;;4.00;3.08;;;;;;;13.89;50.28;99825.53;8020161;35;20518;-73
2021/05/26 11:02:08;;;;;;;3.75;2.58;;;;;;;13.70;50.30;99814.97;8031418;35;21335;-73
2021/05/26 11:07:21;;;;;;;4.60;2.80;;;;;;;13.21;50.11;99839.66;8001473;35;20440;-73
2021/05/26 11:12:23;;;;;;;3.97;2.33;;;;;;;13.58;49.39;99818.94;8003753;35;20148;-73
2021/05/26 11:17:36;;;;;;;2.30;2.10;;;;;;;13.60;48.52;99816.91;8005716;35;20439;-73
2021/05/26 11:22:39;;;;;;;3.10;2.80;;;;;;;13.07;51.49;99829.41;8007655;35;20200;-73
2021/05/26 11:27:55;;;;;;;3.90;3.03;;;;;;;13.10;50.90;99821.00;8007639;35;20156;-73
2021/05/26 11:33:08;;;;;;;3.70;3.10;;;;;;;13.35;51.76;99822.06;8007865;35;20195;-73
2021/05/26 11:38:23;;;;;;;4.13;2.95;;;;;;;13.31;51.39;99817.16;8015532;35;20176;-73
2021/05/26 11:43:30;;;;;;;3.95;2.80;;;;;;;12.99;53.32;99834.72;8019475;35;20261;-73
2021/05/26 11:48:33;;;;;;;3.85;3.40;;;;;;;12.16;63.19;99832.06;8020173;35;20639;-73
2021/05/26 11:53:37;;;;;;;4.25;3.47;;;;;;;12.64;62.19;99819.38;8023232;35;20947;-73
2021/05/26 11:58:40;;;;;;;5.28;3.25;;;;;;;13.61;55.89;99816.75;8018749;35;20239;-72
2021/05/26 12:03:43;;;;;;;4.32;2.83;;;;;;;13.55;53.86;99808.44;8022024;35;20523;-72
2021/05/26 12:08:47;;;;;;;3.60;3.30;;;;;;;13.02;54.75;99802.06;8019906;35;20445;-72
2021/05/26 12:13:50;;;;;;;4.53;3.30;;;;;;;13.22;53.78;99798.22;8019705;35;20155;-72
2021/05/26 12:18:55;;;;;;;3.65;3.20;;;;;;;13.65;51.12;99795.69;8006867;35;20583;-72
2021/05/26 12:24:01;;;;;;;6.25;3.22;;;;;;;14.93;48.64;99799.28;8005303;35;20196;-72
2021/05/26 12:29:09;;;;;;;5.70;3.42;;;;;;;14.68;47.48;99785.72;8004081;35;20497;-73
2021/05/26 12:34:16;;;;;;;2.92;2.70;;;;;;;13.51;52.38;99802.50;7999896;35;20190;-73
2021/05/26 12:39:20;;;;;;;4.10;3.70;;;;;;;11.15;63.52;99812.03;7999985;35;20450;-73
2021/05/26 12:44:25;;;;;;;5.00;4.45;;;;;;;11.81;71.71;99809.38;7992977;35;20460;-72
2021/05/26 12:49:40;;;;;;;7.82;4.68;;;;;;;13.09;67.71;99794.22;7999352;35;20152;-72
2021/05/26 12:54:46;;;;;;;4.25;3.85;;;;;;;13.51;64.81;99785.47;7999334;35;21133;-72
2021/05/26 12:59:53;;;;;;;7.55;4.80;;;;;;;13.78;61.52;99777.22;7999359;35;20461;-73
2021/05/26 13:04:56;;;;;;;6.35;4.25;;;;;;;14.40;57.65;99795.06;7999562;35;20199;-73
2021/05/26 13:10:17;;;;;;;3.40;3.10;;;;;;;14.29;52.83;99783.56;8003026;35;20478;-72
2021/05/26 13:15:26;;;;;;;2.47;1.90;;;;;;;15.11;48.16;99786.47;7980656;35;20506;-72
2021/05/26 13:20:33;;;;;;;3.78;3.03;;;;;;;16.18;49.38;99767.31;7971074;35;20292;-72
2021/05/26 13:25:38;;;;;;;4.55;3.30;;;;;;;16.51;47.39;99766.19;7991536;35;20246;-72
2021/05/26 13:30:43;;;;;;;5.25;3.22;;;;;;;15.41;45.72;99768.75;8002937;35;20602;-72
2021/05/26 13:35:46;;;;;;;3.33;3.03;;;;;;;15.61;48.36;99763.78;7999927;35;20829;-72
2021/05/26 13:40:50;;;;;;;3.90;3.25;;;;;;;15.96;46.17;99763.50;8000221;35;22050;-72
2021/05/26 13:45:53;;;;;;;3.65;3.35;;;;;;;15.34;47.53;99759.59;8000687;35;22097;-72
2021/05/26 13:50:56;;;;;;;3.88;3.15;;;;;;;14.61;50.13;99765.75;8003481;35;20467;-72
2021/05/26 13:55:59;;;;;;;5.53;3.13;;;;;;;14.97;50.57;99760.91;7964894;35;21113;-72
2021/05/26 14:01:02;;;;;;;3.55;3.10;;;;;;;15.93;45.41;99727.66;7952900;35;20128;-72
2021/05/26 14:06:05;;;;;;;3.88;3.20;;;;;;;16.59;44.91;99728.19;8003774;35;20541;-72
2021/05/26 14:11:08;;;;;;;2.63;2.40;;;;;;;16.67;43.73;99735.41;7987719;35;21306;-72
2021/05/26 14:16:11;;;;;;;2.33;2.13;;;;;;;17.29;42.37;99737.16;8009621;35;20148;-72
2021/05/26 14:21:14;;;;;;;4.85;2.72;;;;;;;14.43;47.96;99732.63;8006790;35;20529;-72
2021/05/26 14:26:18;;;;;;;3.60;2.83;;;;;;;13.26;52.34;99759.13;8000982;35;20375;-72
2021/05/26 14:31:20;;;;;;;9.32;4.95;;;;;;;12.09;58.09;99779.81;8000515;35;20569;-72
2021/05/26 14:36:26;;;;;;;10.10;5.40;;;;;;;10.01;69.21;99770.38;7991683;35;20201;-72
2021/05/26 14:41:29;;;;;;;6.97;4.70;;;;;;;9.90;71.36;99785.63;7993704;35;20144;-73
2021/05/26 14:46:32;;;;;;;11.00;6.03;;;;;;;9.67;77.92;99803.66;7995463;35;20480;-72
2021/05/26 14:51:35;;;;;;;8.05;5.25;;;;;;;9.31;81.71;99798.78;7993344;35;20546;-72
2021/05/26 14:56:41;;;;;;;9.73;5.82;;;;;;;10.31;81.68;99793.66;7980909;35;20437;-73
2021/05/26 15:01:43;;;;;;;8.20;5.55;;;;;;;12.17;81.14;99787.97;7984701;35;20319;-73
2021/05/26 15:06:46;;;;;;;12.07;6.18;;;;;;;13.88;69.81;99777.97;7932239;35;20486;-73
2021/05/26 15:11:50;;;;;;;6.43;4.30;;;;;;;14.70;61.42;99785.53;7978845;35;20215;-72
2021/05/26 15:16:52;;;;;;;6.85;4.65;;;;;;;14.32;62.74;99775.13;8012712;35;21437;-72
2021/05/26 15:21:55;;;;;;;8.48;5.40;;;;;;;14.04;58.64;99768.22;8016566;35;20337;-72
2021/05/26 15:26:59;;;;;;;6.50;4.38;;;;;;;14.50;57.42;99769.63;8020901;35;21182;-72
2021/05/26 15:32:01;;;;;;;6.35;4.80;;;;;;;14.01;57.07;99773.97;8010787;35;20151;-72
2021/05/26 15:37:05;;;;;;;6.70;3.95;;;;;;;13.83;55.44;99771.34;8010171;35;20496;-71
2021/05/26 15:42:09;;;;;;;9.32;4.30;;;;;;;13.62;62.22;99769.03;8022887;35;20196;-72
2021/05/26 15:47:11;;;;;;;5.50;4.20;;;;;;;14.01;57.71;99768.56;8020074;35;20199;-72
2021/05/26 15:52:14;;;;;;;5.43;4.20;;;;;;;16.13;54.33;99755.16;8011803;35;20453;-72
2021/05/26 15:57:20;;;;;;;6.97;4.55;;;;;;;15.74;51.81;99759.69;7985028;35;20146;-72
2021/05/26 16:02:22;;;;;;;5.38;3.35;;;;;;;15.28;50.67;99757.56;8005970;35;21815;-72
2021/05/26 16:07:26;;;;;;;4.13;3.72;;;;;;;16.26;51.63;99759.19;8006055;35;20530;-72
2021/05/26 16:12:29;;;;;;;4.55;3.30;;;;;;;15.22;48.23;99775.31;8017975;35;20183;-72
2021/05/26 16:17:32;;;;;;;4.80;3.65;;;;;;;15.13;51.12;99787.13;8019059;35;21215;-72
2021/05/26 16:22:35;;;;;;;4.95;3.35;;;;;;;14.72;49.56;99768.16;8020141;35;20463;-72
2021/05/26 16:27:42;;;;;;;3.72;3.22;;;;;;;15.67;47.72;99773.09;8014035;35;20144;-72
2021/05/26 16:32:44;;;;;;;3.65;2.58;;;;;;;13.74;49.52;99772.28;8020232;35;20203;-72
2021/05/26 16:37:47;;;;;;;4.18;2.95;;;;;;;18.66;40.59;99767.50;8007258;35;21212;-72
2021/05/26 16:42:51;;;;;;;2.67;2.47;;;;;;;21.61;34.76;99759.69;8002648;35;21664;-72
2021/05/26 16:47:54;;;;;;;3.33;2.13;;;;;;;16.07;43.18;99765.84;8007474;35;20257;-71
2021/05/26 16:53:09;;;;;;;5.68;2.22;;;;;;;16.40;43.11;99763.03;8027743;35;20587;-72
2021/05/26 16:58:12;;;;;;;4.10;2.35;;;;;;;13.48;50.31;99765.91;8028233;35;20191;-72
2021/05/26 17:03:15;;;;;;;2.65;2.22;;;;;;;12.87;52.62;99773.97;8030204;35;20471;-72
2021/05/26 17:08:18;;;;;;;4.70;2.45;;;;;;;13.33;50.83;99759.38;8024634;35;20148;-71
2021/05/26 17:13:22;;;;;;;5.60;3.00;;;;;;;12.55;52.87;99765.38;8003683;35;20921;-71
2021/05/26 17:18:25;;;;;;;2.65;2.45;;;;;;;12.28;53.80;99779.72;8004042;35;20485;-72
2021/05/26 17:23:31;;;;;;;4.37;2.70;;;;;;;11.46;60.45;99777.75;8005216;35;20439;-72
2021/05/26 17:28:34;;;;;;;3.88;2.83;;;;;;;11.91;64.45;99779.75;7987158;35;21086;-72
2021/05/26 17:33:38;;;;;;;3.78;2.72;;;;;;;14.97;59.56;99770.88;7938993;35;20445;-72
2021/05/26 17:38:41;;;;;;;3.88;2.55;;;;;;;18.25;43.56;99770.78;7975702;35;20168;-72
2021/05/26 17:43:46;;;;;;;2.47;2.22;;;;;;;17.56;42.75;99773.72;7969868;35;21851;-72
2021/05/26 17:48:49;;;;;;;2.00;1.90;;;;;;;14.52;48.38;99769.47;8026844;35;20458;-72
2021/05/26 17:53:51;;;;;;;2.40;2.20;;;;;;;12.45;52.98;99782.63;8049199;35;20848;-71
2021/05/26 17:58:55;;;;;;;2.58;2.20;;;;;;;12.65;53.50;99780.66;8012219;35;20446;-72
2021/05/26 18:03:58;;;;;;;3.28;2.17;;;;;;;12.72;53.10;99774.47;8045538;35;20489;-71
2021/05/26 18:09:00;;;;;;;2.88;2.58;;;;;;;11.81;54.90;99779.78;8052820;35;20161;-72
2021/05/26 18:14:04;;;;;;;2.47;2.28;;;;;;;11.80;55.58;99788.00;8053217;35;20516;-72
2021/05/26 18:19:09;;;;;;;2.85;2.47;;;;;;;12.02;54.72;99794.88;8053244;35;20603;-72
2021/05/26 18:24:12;;;;;;;10.80;2.60;;;;;;;11.81;55.04;99797.75;8053914;35;20910;-72
2021/05/26 18:29:16;;;;;;;3.25;2.95;;;;;;;11.65;56.35;99803.75;8035693;35;20428;-72
2021/05/26 18:34:19;;;;;;;3.28;2.50;;;;;;;11.31;57.24;99800.72;8059057;35;20510;-72
2021/05/26 18:39:21;;;;;;;2.10;1.90;;;;;;;11.28;55.09;99823.34;8011608;35;20242;-72
2021/05/26 18:44:25;;;;;;;4.10;1.65;;;;;;;11.04;53.54;99794.19;7981476;35;20494;-72
2021/05/26 18:49:28;;;;;;;4.28;1.90;;;;;;;11.00;53.99;99814.28;8002525;35;20196;-72
2021/05/26 18:54:30;;;;;;;3.95;1.70;;;;;;;10.84;52.79;99814.81;8002584;35;20596;-72
2021/05/26 18:59:34;;;;;;;4.13;1.40;;;;;;;10.79;52.47;99825.13;7981736;35;20902;-72
2021/05/26 19:04:39;;;;;;;1.33;1.23;;;;;;;10.73;53.55;99831.91;7974726;35;20437;-72
2021/05/26 19:09:42;;;;;;;3.67;1.73;;;;;;;10.44;55.08;99833.69;8002130;35;20654;-72
2021/05/26 19:14:47;;;;;;;1.98;1.50;;;;;;;10.35;55.71;99846.94;8005780;35;20188;-72
2021/05/26 19:19:50;;;;;;;2.25;1.52;;;;;;;10.11;56.92;99852.63;7985921;35;20145;-72
2021/05/26 19:24:56;;;;;;;2.35;1.90;;;;;;;10.58;57.71;99861.00;7995805;35;21312;-71
2021/05/26 19:30:00;;;;;;;2.30;1.80;;;;;;;10.10;58.39;99847.41;8015718;35;20520;-71
2021/05/26 19:35:03;;;;;;;3.78;1.60;;;;;;;10.06;59.49;99870.13;8008222;35;20447;-71
2021/05/26 19:40:09;;;;;;;2.58;1.50;;;;;;;9.57;61.55;99888.59;8007068;35;20183;-72
2021/05/26 19:45:13;;;;;;;4.00;1.90;;;;;;;9.68;61.34;99884.97;8007678;35;20151;-71
2021/05/26 19:50:36;;;;;;;3.88;1.92;;;;;;;9.70;62.69;99880.31;8007916;35;20198;-72
2021/05/26 19:55:39;;;;;;;4.18;2.53;;;;;;;9.23;63.94;99883.34;7985232;35;20656;-71
2021/05/26 20:00:43;;;;;;;3.40;2.78;;;;;;;9.34;64.57;99895.88;8006126;35;20552;-75
2021/05/26 20:06:06;;;;;;;3.28;2.85;;;;;;;9.37;64.46;99887.56;8001740;35;20494;-71
2021/05/26 20:11:08;;;;;;;4.78;2.53;;;;;;;9.37;64.85;99890.25;8011764;35;20195;-72
2021/05/26 20:16:13;;;;;;;5.93;3.00;;;;;;;9.36;65.31;99893.91;8027288;35;20135;-73
2021/05/26 20:21:20;;;;;;;5.13;3.35;;;;;;;8.60;71.35;99891.19;8023178;35;22156;-74
2021/05/26 20:26:22;;;;;;;4.32;3.15;;;;;;;8.32;74.23;99899.72;8046329;35;20151;-74
2021/05/26 20:31:26;;;;;;;8.02;4.85;;;;;;;7.99;76.47;99904.06;8056763;35;20945;-74
2021/05/26 20:36:29;;;;;;;5.28;4.40;;;;;;;8.01;78.39;99907.47;8032038;35;20584;-74
2021/05/26 20:41:31;;;;;;;8.57;5.75;;;;;;;7.97;79.11;99916.69;8002642;35;20179;-74
2021/05/26 20:46:35;;;;;;;9.23;6.47;;;;;;;7.98;79.10;99913.06;8001117;35;22057;-74
2021/05/26 20:51:38;;;;;;;8.02;6.50;;;;;;;7.91;80.37;99915.34;8000668;35;20171;-74
2021/05/26 20:56:41;;;;;;;11.00;7.60;;;;;;;7.66;80.91;99927.06;7998864;35;21501;-75
2021/05/26 21:01:45;;;;;;;9.13;6.00;;;;;;;7.64;81.37;99922.81;8004257;35;20268;-73
2021/05/26 21:06:48;;;;;;;8.10;6.13;;;;;;;7.64;81.91;99938.84;8026803;35;20287;-73
2021/05/26 21:11:50;;;;;;;11.95;8.52;;;;;;;7.80;81.89;99915.31;8038610;35;20155;-74
2021/05/26 21:16:54;;;;;;;12.02;8.35;;;;;;;7.75;81.73;99930.88;8033985;35;20443;-74
2021/05/26 21:21:57;;;;;;;12.55;7.95;;;;;;;8.03;81.52;99924.22;8063523;35;20432;-74
2021/05/26 21:27:00;;;;;;;10.07;7.55;;;;;;;7.84;82.17;99929.31;8032322;35;20152;-73
2021/05/26 21:32:05;;;;;;;13.43;9.35;;;;;;;8.05;81.95;99924.97;8033027;35;20183;-74
2021/05/26 21:37:07;;;;;;;11.18;7.28;;;;;;;7.77;82.13;99938.78;8042696;35;20189;-73
2021/05/26 21:42:10;;;;;;;13.38;9.02;;;;;;;8.05;81.23;99940.19;8071028;35;20978;-73
2021/05/26 21:47:13;;;;;;;13.15;8.48;;;;;;;8.10;81.46;99930.81;8049572;35;20557;-73
2021/05/26 21:52:16;;;;;;;13.00;8.23;;;;;;;8.04;81.46;99919.75;8043372;35;20363;-73
2021/05/26 21:57:19;;;;;;;12.50;7.95;;;;;;;8.15;81.03;99925.97;8056021;35;21107;-73
2021/05/26 22:02:22;;;;;;;9.20;4.68;;;;;;;7.99;80.76;99924.59;8069937;35;20186;-73
2021/05/26 22:07:25;;;;;;;10.57;7.35;;;;;;;8.16;80.21;99921.47;8071136;35;20441;-73
2021/05/26 22:12:28;;;;;;;9.18;6.53;;;;;;;8.08;80.63;99915.84;8074528;35;20489;-73
2021/05/26 22:17:31;;;;;;;8.30;5.95;;;;;;;8.21;80.06;99932.66;8074259;35;20194;-73
2021/05/26 22:22:34;;;;;;;12.65;7.18;;;;;;;8.21;79.84;99929.97;8075182;35;20472;-73
2021/05/26 22:27:39;;;;;;;6.88;5.13;;;;;;;8.37;79.74;99932.31;8069662;35;20430;-71
2021/05/26 22:32:43;;;;;;;9.65;5.53;;;;;;;8.09;79.29;99947.84;8070440;35;20147;-73
2021/05/26 22:37:48;;;;;;;7.03;5.32;;;;;;;8.29;78.89;99937.41;8068332;35;20174;-73
2021/05/26 22:42:52;;;;;;;9.73;6.25;;;;;;;8.39;78.36;99935.69;8068107;35;20442;-73
2021/05/26 22:47:55;;;;;;;9.07;6.20;;;;;;;8.25;79.36;99927.91;8067363;35;20203;-73
2021/05/26 22:52:57;;;;;;;9.80;6.28;;;;;;;8.49;79.31;99933.19;8070340;35;20637;-73
2021/05/26 22:58:01;;;;;;;7.82;6.97;;;;;;;8.25;79.66;99942.13;8070815;35;20477;-73
2021/05/26 23:03:22;;;;;;;9.88;6.55;;;;;;;8.43;79.40;99947.03;8072289;35;20643;-73
2021/05/26 23:08:25;;;;;;;8.02;5.10;;;;;;;8.08;80.06;99946.13;8069134;35;20194;-73
2021/05/26 23:13:27;;;;;;;7.65;6.00;;;;;;;8.14;79.57;99939.44;8055096;35;20190;-73
2021/05/26 23:18:32;;;;;;;6.93;4.80;;;;;;;8.09;79.85;99953.19;8058879;35;20459;-73
2021/05/26 23:23:34;;;;;;;11.90;6.55;;;;;;;8.10;80.59;99956.72;8058544;35;20167;-73
2021/05/26 23:28:37;;;;;;;9.88;5.60;;;;;;;7.97;80.79;99962.16;8057900;35;21011;-73
2021/05/26 23:33:41;;;;;;;8.23;6.05;;;;;;;8.03;80.65;99952.81;8059586;35;20199;-73
2021/05/26 23:38:43;;;;;;;9.88;5.95;;;;;;;8.00;80.67;99955.72;8071061;35;20194;-73
2021/05/26 23:43:46;;;;;;;8.27;6.43;;;;;;;8.07;80.76;99949.78;8072022;35;20476;-73
2021/05/26 23:48:49;;;;;;;8.82;6.35;;;;;;;8.20;80.85;99960.41;8071260;35;20193;-73